DLH520 EGLL-EDDF
Flight info
| Callsign | DLH520 |
|---|---|
| Flight time | 0h 59m |
| Altitude | 35000 |
| Route | DET L6 DVR UL9 KONAN UL607 SPI T180 NIVNU T847 IMCOM IMCOM1A |
| Aircraft | A359/H-SDE2E3GHIJ3J4J5LM1ORWXY/LB1D1 |
Departure
| Time | 2026-04-15 15:46 |
|---|---|
| Airport | London Heathrow Airport (EGLL) |
Arrival
| Time | 2026-04-15 16:46 |
|---|---|
| Airport | Frankfurt Main Airport (EDDF) |
| Time | Latitude | Longitude | Altitude | Speed | Heading |
|---|---|---|---|---|---|
| 2026-04-15 15:22 | 51.47017 | -0.44414 | 96 ft | 0 kts | 90° |
| 2026-04-15 15:37 | 51.47017 | -0.44418 | 93 ft | 2 kts | 90° |
| 2026-04-15 15:37 | 51.47017 | -0.44448 | 96 ft | 3 kts | 90° |
| 2026-04-15 15:37 | 51.47017 | -0.44480 | 96 ft | 3 kts | 89° |
| 2026-04-15 15:37 | 51.47018 | -0.44511 | 95 ft | 3 kts | 105° |
| 2026-04-15 15:38 | 51.47025 | -0.44539 | 94 ft | 3 kts | 134° |
| 2026-04-15 15:38 | 51.47040 | -0.44556 | 94 ft | 3 kts | 169° |
| 2026-04-15 15:38 | 51.47052 | -0.44559 | 94 ft | 1 kts | 180° |
| 2026-04-15 15:38 | 51.47070 | -0.44559 | 94 ft | 3 kts | 180° |
| 2026-04-15 15:39 | 51.47078 | -0.44559 | 94 ft | 4 kts | 180° |
| 2026-04-15 15:42 | 51.47061 | -0.44559 | 94 ft | 9 kts | 180° |
| 2026-04-15 15:42 | 51.46993 | -0.44558 | 94 ft | 11 kts | 179° |
| 2026-04-15 15:42 | 51.46913 | -0.44557 | 93 ft | 12 kts | 179° |
| 2026-04-15 15:43 | 51.46822 | -0.44555 | 93 ft | 14 kts | 179° |
| 2026-04-15 15:43 | 51.46722 | -0.44555 | 96 ft | 10 kts | 180° |
| 2026-04-15 15:43 | 51.46670 | -0.44505 | 93 ft | 10 kts | 115° |
| 2026-04-15 15:43 | 51.46665 | -0.44309 | 93 ft | 21 kts | 89° |
| 2026-04-15 15:44 | 51.46666 | -0.44054 | 93 ft | 24 kts | 89° |
| 2026-04-15 15:44 | 51.46667 | -0.43842 | 93 ft | 20 kts | 90° |
| 2026-04-15 15:44 | 51.46667 | -0.43714 | 93 ft | 12 kts | 90° |
| 2026-04-15 15:44 | 51.46629 | -0.43616 | 93 ft | 11 kts | 153° |
| 2026-04-15 15:45 | 51.46537 | -0.43605 | 93 ft | 15 kts | 186° |
| 2026-04-15 15:45 | 51.46494 | -0.43680 | 93 ft | 11 kts | 256° |
| 2026-04-15 15:45 | 51.46492 | -0.43833 | 92 ft | 30 kts | 269° |
| 2026-04-15 15:45 | 51.46487 | -0.44685 | 98 ft | 119 kts | 269° |
| 2026-04-15 15:46 | 51.46481 | -0.46384 | 332 ft | 172 kts | 262° |
| 2026-04-15 15:46 | 51.46586 | -0.48358 | 1423 ft | 186 kts | 279° |
| 2026-04-15 15:46 | 51.47304 | -0.50219 | 2254 ft | 212 kts | 309° |
| 2026-04-15 15:46 | 51.48728 | -0.51340 | 2872 ft | 252 kts | 344° |
| 2026-04-15 15:47 | 51.50556 | -0.50984 | 3585 ft | 282 kts | 21° |
| 2026-04-15 15:47 | 51.52096 | -0.49008 | 4528 ft | 290 kts | 55° |
| 2026-04-15 15:47 | 51.52839 | -0.46020 | 5366 ft | 291 kts | 88° |
| 2026-04-15 15:47 | 51.52694 | -0.42887 | 6561 ft | 268 kts | 111° |
| 2026-04-15 15:48 | 51.52180 | -0.40282 | 7312 ft | 227 kts | 120° |
| 2026-04-15 15:48 | 51.51659 | -0.37969 | 7330 ft | 224 kts | 120° |
| 2026-04-15 15:48 | 51.51077 | -0.35538 | 6971 ft | 251 kts | 121° |
| 2026-04-15 15:48 | 51.50364 | -0.32778 | 6847 ft | 280 kts | 121° |
| 2026-04-15 15:49 | 51.49580 | -0.29858 | 6850 ft | 287 kts | 121° |
| 2026-04-15 15:49 | 51.48783 | -0.26925 | 6846 ft | 288 kts | 121° |
| 2026-04-15 15:49 | 51.47981 | -0.23970 | 6860 ft | 288 kts | 121° |
| 2026-04-15 15:49 | 51.47188 | -0.21032 | 6865 ft | 288 kts | 121° |
| 2026-04-15 15:50 | 51.46392 | -0.18078 | 6849 ft | 288 kts | 121° |
| 2026-04-15 15:50 | 51.45553 | -0.15165 | 6837 ft | 284 kts | 127° |
| 2026-04-15 15:50 | 51.44239 | -0.12960 | 6844 ft | 270 kts | 150° |
| 2026-04-15 15:50 | 51.42988 | -0.10640 | 6835 ft | 288 kts | 123° |
| 2026-04-15 15:51 | 51.42397 | -0.07536 | 6841 ft | 295 kts | 108° |
| 2026-04-15 15:51 | 51.41968 | -0.04294 | 6868 ft | 295 kts | 109° |
| 2026-04-15 15:51 | 51.41499 | -0.01123 | 6875 ft | 294 kts | 110° |
| 2026-04-15 15:51 | 51.40978 | 0.02073 | 6872 ft | 294 kts | 111° |
| 2026-04-15 15:52 | 51.40434 | 0.05231 | 7122 ft | 297 kts | 112° |
| 2026-04-15 15:52 | 51.39868 | 0.08426 | 8012 ft | 299 kts | 112° |
| 2026-04-15 15:52 | 51.39297 | 0.11623 | 9397 ft | 299 kts | 113° |
| 2026-04-15 15:52 | 51.38714 | 0.14842 | 10576 ft | 307 kts | 114° |
| 2026-04-15 15:53 | 51.38095 | 0.18191 | 11465 ft | 322 kts | 114° |
| 2026-04-15 15:53 | 51.37451 | 0.21668 | 12383 ft | 337 kts | 114° |
| 2026-04-15 15:53 | 51.36775 | 0.25331 | 13276 ft | 351 kts | 114° |
| 2026-04-15 15:53 | 51.36067 | 0.29164 | 14117 ft | 365 kts | 114° |
| 2026-04-15 15:54 | 51.35338 | 0.33117 | 14954 ft | 375 kts | 113° |
| 2026-04-15 15:54 | 51.34597 | 0.37137 | 15706 ft | 378 kts | 113° |
| 2026-04-15 15:54 | 51.33852 | 0.41181 | 16764 ft | 380 kts | 113° |
| 2026-04-15 15:54 | 51.33101 | 0.45239 | 17857 ft | 383 kts | 113° |
| 2026-04-15 15:55 | 51.32339 | 0.49336 | 18849 ft | 386 kts | 114° |
| 2026-04-15 15:55 | 51.31565 | 0.53481 | 19781 ft | 392 kts | 114° |
| 2026-04-15 15:55 | 51.30781 | 0.57671 | 20698 ft | 397 kts | 115° |
| 2026-04-15 15:55 | 51.29986 | 0.61924 | 21619 ft | 402 kts | 115° |
| 2026-04-15 15:56 | 51.29196 | 0.66223 | 22576 ft | 406 kts | 115° |
| 2026-04-15 15:56 | 51.28399 | 0.70591 | 23487 ft | 411 kts | 115° |
| 2026-04-15 15:56 | 51.27595 | 0.74995 | 24264 ft | 416 kts | 115° |
| 2026-04-15 15:56 | 51.26779 | 0.79456 | 25026 ft | 421 kts | 115° |
| 2026-04-15 15:57 | 51.25951 | 0.83961 | 25793 ft | 425 kts | 115° |
| 2026-04-15 15:57 | 51.25112 | 0.88514 | 26554 ft | 430 kts | 115° |
| 2026-04-15 15:57 | 51.24261 | 0.93120 | 27361 ft | 435 kts | 115° |
| 2026-04-15 15:57 | 51.23409 | 0.97717 | 28070 ft | 439 kts | 115° |
| 2026-04-15 15:58 | 51.22535 | 1.02420 | 28755 ft | 445 kts | 115° |
| 2026-04-15 15:58 | 51.21650 | 1.07172 | 29393 ft | 450 kts | 115° |
| 2026-04-15 15:58 | 51.20750 | 1.11986 | 30033 ft | 455 kts | 115° |
| 2026-04-15 15:58 | 51.19837 | 1.16864 | 30597 ft | 460 kts | 115° |
| 2026-04-15 15:59 | 51.18911 | 1.21792 | 31092 ft | 465 kts | 115° |
| 2026-04-15 15:59 | 51.17977 | 1.26755 | 31608 ft | 470 kts | 115° |
| 2026-04-15 15:59 | 51.17038 | 1.31766 | 32086 ft | 476 kts | 114° |
| 2026-04-15 15:59 | 51.16325 | 1.36927 | 32569 ft | 488 kts | 106° |
| 2026-04-15 16:00 | 51.15928 | 1.42334 | 33058 ft | 495 kts | 103° |
| 2026-04-15 16:00 | 51.15617 | 1.47897 | 33528 ft | 500 kts | 102° |
| 2026-04-15 16:00 | 51.15355 | 1.53356 | 33983 ft | 504 kts | 101° |
| 2026-04-15 16:00 | 51.15102 | 1.58961 | 34360 ft | 508 kts | 101° |
| 2026-04-15 16:01 | 51.14847 | 1.64597 | 34698 ft | 511 kts | 101° |
| 2026-04-15 16:01 | 51.14584 | 1.70254 | 35009 ft | 513 kts | 101° |
| 2026-04-15 16:01 | 51.14041 | 1.81447 | 35092 ft | 502 kts | 101° |
| 2026-04-15 16:02 | 51.13479 | 1.92527 | 35094 ft | 501 kts | 101° |
| 2026-04-15 16:02 | 51.12900 | 2.03576 | 35097 ft | 501 kts | 101° |
| 2026-04-15 16:03 | 51.12310 | 2.14618 | 35095 ft | 501 kts | 101° |
| 2026-04-15 16:03 | 51.11711 | 2.25602 | 35095 ft | 501 kts | 101° |
| 2026-04-15 16:04 | 51.11100 | 2.36657 | 35096 ft | 501 kts | 101° |
| 2026-04-15 16:04 | 51.10480 | 2.47703 | 35118 ft | 501 kts | 101° |
| 2026-04-15 16:05 | 51.09849 | 2.58759 | 35120 ft | 501 kts | 101° |
| 2026-04-15 16:05 | 51.08657 | 2.69584 | 35119 ft | 494 kts | 110° |
| 2026-04-15 16:06 | 51.06830 | 2.80102 | 35124 ft | 493 kts | 111° |
| 2026-04-15 16:06 | 51.04907 | 2.90539 | 35125 ft | 493 kts | 111° |
| 2026-04-15 16:07 | 51.02970 | 3.00999 | 35123 ft | 493 kts | 111° |
| 2026-04-15 16:08 | 51.00087 | 3.16610 | 35122 ft | 494 kts | 111° |
| 2026-04-15 16:08 | 50.98147 | 3.27075 | 35116 ft | 494 kts | 111° |
| 2026-04-15 16:09 | 50.96192 | 3.37554 | 35113 ft | 495 kts | 111° |
| 2026-04-15 16:09 | 50.94230 | 3.48013 | 35116 ft | 495 kts | 111° |
| 2026-04-15 16:10 | 50.92252 | 3.58492 | 35115 ft | 496 kts | 111° |
| 2026-04-15 16:10 | 50.90273 | 3.68953 | 35119 ft | 496 kts | 111° |
| 2026-04-15 16:11 | 50.88263 | 3.79374 | 35127 ft | 497 kts | 111° |
| 2026-04-15 16:11 | 50.86224 | 3.89839 | 35127 ft | 497 kts | 111° |
| 2026-04-15 16:12 | 50.84176 | 4.00316 | 35131 ft | 498 kts | 111° |
| 2026-04-15 16:12 | 50.82127 | 4.10769 | 35138 ft | 498 kts | 110° |
| 2026-04-15 16:13 | 50.80065 | 4.21235 | 35144 ft | 499 kts | 110° |
| 2026-04-15 16:13 | 50.77989 | 4.31715 | 35149 ft | 499 kts | 110° |
| 2026-04-15 16:14 | 50.75903 | 4.42184 | 35151 ft | 500 kts | 110° |
| 2026-04-15 16:14 | 50.73805 | 4.52667 | 35152 ft | 500 kts | 110° |
| 2026-04-15 16:15 | 50.71698 | 4.63153 | 35145 ft | 501 kts | 110° |
| 2026-04-15 16:15 | 50.69654 | 4.73665 | 35147 ft | 501 kts | 109° |
| 2026-04-15 16:16 | 50.67634 | 4.84138 | 35141 ft | 502 kts | 109° |
| 2026-04-15 16:16 | 50.65582 | 4.94673 | 35148 ft | 502 kts | 109° |
| 2026-04-15 16:17 | 50.63448 | 5.05147 | 35155 ft | 502 kts | 110° |
| 2026-04-15 16:17 | 50.61284 | 5.15521 | 35159 ft | 502 kts | 110° |
| 2026-04-15 16:18 | 50.59110 | 5.25945 | 35154 ft | 503 kts | 109° |
| 2026-04-15 16:18 | 50.56920 | 5.36445 | 35159 ft | 503 kts | 109° |
| 2026-04-15 16:19 | 50.54737 | 5.46874 | 35159 ft | 503 kts | 109° |
| 2026-04-15 16:19 | 50.52536 | 5.57336 | 35156 ft | 503 kts | 109° |
| 2026-04-15 16:20 | 50.50363 | 5.67803 | 35159 ft | 504 kts | 108° |
| 2026-04-15 16:20 | 50.48402 | 5.78374 | 35156 ft | 504 kts | 107° |
| 2026-04-15 16:21 | 50.46485 | 5.88906 | 35155 ft | 504 kts | 107° |
| 2026-04-15 16:21 | 50.44517 | 5.99465 | 35159 ft | 504 kts | 107° |
| 2026-04-15 16:22 | 50.42514 | 6.10023 | 35155 ft | 504 kts | 107° |
| 2026-04-15 16:22 | 50.40500 | 6.20550 | 35154 ft | 504 kts | 107° |
| 2026-04-15 16:22 | 50.39483 | 6.25842 | 34970 ft | 510 kts | 107° |
| 2026-04-15 16:23 | 50.38454 | 6.31187 | 34734 ft | 516 kts | 107° |
| 2026-04-15 16:23 | 50.37414 | 6.36587 | 34488 ft | 518 kts | 107° |
| 2026-04-15 16:23 | 50.36551 | 6.42071 | 34252 ft | 519 kts | 99° |
| 2026-04-15 16:23 | 50.36057 | 6.47645 | 33824 ft | 515 kts | 96° |
| 2026-04-15 16:24 | 50.35663 | 6.53212 | 32962 ft | 513 kts | 95° |
| 2026-04-15 16:24 | 50.35309 | 6.58754 | 32071 ft | 511 kts | 94° |
| 2026-04-15 16:24 | 50.34968 | 6.64277 | 31157 ft | 510 kts | 94° |
| 2026-04-15 16:24 | 50.34627 | 6.69812 | 30202 ft | 510 kts | 94° |
| 2026-04-15 16:25 | 50.34283 | 6.75321 | 29444 ft | 503 kts | 94° |
| 2026-04-15 16:25 | 50.33952 | 6.80649 | 28816 ft | 494 kts | 94° |
| 2026-04-15 16:25 | 50.33622 | 6.85978 | 28182 ft | 487 kts | 94° |
| 2026-04-15 16:25 | 50.33214 | 6.91244 | 27533 ft | 480 kts | 98° |
| 2026-04-15 16:26 | 50.32637 | 6.96299 | 26906 ft | 474 kts | 99° |
| 2026-04-15 16:26 | 50.32035 | 7.01410 | 26268 ft | 468 kts | 99° |
| 2026-04-15 16:26 | 50.31471 | 7.06331 | 25660 ft | 462 kts | 99° |
| 2026-04-15 16:26 | 50.30915 | 7.11274 | 25273 ft | 464 kts | 99° |
| 2026-04-15 16:27 | 50.30352 | 7.16326 | 25153 ft | 477 kts | 99° |
| 2026-04-15 16:27 | 50.29787 | 7.21408 | 24811 ft | 471 kts | 99° |
| 2026-04-15 16:27 | 50.29233 | 7.26383 | 24295 ft | 469 kts | 99° |
| 2026-04-15 16:27 | 50.28666 | 7.31475 | 24052 ft | 472 kts | 99° |
| 2026-04-15 16:28 | 50.28100 | 7.36538 | 23824 ft | 471 kts | 99° |
| 2026-04-15 16:28 | 50.27540 | 7.41526 | 23568 ft | 470 kts | 99° |
| 2026-04-15 16:28 | 50.26974 | 7.46553 | 23301 ft | 468 kts | 99° |
| 2026-04-15 16:28 | 50.26409 | 7.51548 | 23027 ft | 466 kts | 99° |
| 2026-04-15 16:29 | 50.25846 | 7.56510 | 22702 ft | 461 kts | 99° |
| 2026-04-15 16:29 | 50.25291 | 7.61386 | 22131 ft | 450 kts | 99° |
| 2026-04-15 16:29 | 50.24744 | 7.66157 | 21505 ft | 441 kts | 99° |
| 2026-04-15 16:29 | 50.24208 | 7.70831 | 20855 ft | 434 kts | 100° |
| 2026-04-15 16:30 | 50.23856 | 7.73888 | 20440 ft | 429 kts | 100° |
| 2026-04-15 16:30 | 50.23329 | 7.78452 | 19803 ft | 423 kts | 100° |
| 2026-04-15 16:30 | 50.22803 | 7.82998 | 19362 ft | 429 kts | 100° |
| 2026-04-15 16:30 | 50.22264 | 7.87635 | 19200 ft | 435 kts | 100° |
| 2026-04-15 16:31 | 50.21719 | 7.92299 | 19183 ft | 436 kts | 100° |
| 2026-04-15 16:31 | 50.21174 | 7.96952 | 19181 ft | 436 kts | 100° |
| 2026-04-15 16:31 | 50.20628 | 8.01599 | 19179 ft | 435 kts | 100° |
| 2026-04-15 16:31 | 50.20079 | 8.06247 | 19176 ft | 435 kts | 100° |
| 2026-04-15 16:32 | 50.19529 | 8.10895 | 19137 ft | 433 kts | 100° |
| 2026-04-15 16:32 | 50.18983 | 8.15482 | 18909 ft | 431 kts | 100° |
| 2026-04-15 16:32 | 50.18434 | 8.20090 | 18509 ft | 432 kts | 100° |
| 2026-04-15 16:32 | 50.17883 | 8.24690 | 18025 ft | 431 kts | 101° |
| 2026-04-15 16:33 | 50.17383 | 8.29283 | 17544 ft | 428 kts | 96° |
| 2026-04-15 16:33 | 50.17291 | 8.33898 | 17069 ft | 424 kts | 86° |
| 2026-04-15 16:33 | 50.17549 | 8.38432 | 16613 ft | 413 kts | 83° |
| 2026-04-15 16:33 | 50.17851 | 8.42798 | 16152 ft | 400 kts | 83° |
| 2026-04-15 16:34 | 50.18144 | 8.46971 | 15689 ft | 374 kts | 83° |
| 2026-04-15 16:34 | 50.18415 | 8.50838 | 15206 ft | 344 kts | 83° |
| 2026-04-15 16:34 | 50.18669 | 8.54440 | 14706 ft | 324 kts | 83° |
| 2026-04-15 16:34 | 50.18914 | 8.57912 | 14244 ft | 318 kts | 83° |
| 2026-04-15 16:35 | 50.19158 | 8.61347 | 13745 ft | 317 kts | 83° |
| 2026-04-15 16:35 | 50.19402 | 8.64738 | 13210 ft | 312 kts | 83° |
| 2026-04-15 16:35 | 50.19648 | 8.68104 | 12695 ft | 314 kts | 83° |
| 2026-04-15 16:35 | 50.19897 | 8.71455 | 12190 ft | 314 kts | 83° |
| 2026-04-15 16:36 | 50.20152 | 8.74844 | 11687 ft | 313 kts | 83° |
| 2026-04-15 16:36 | 50.20408 | 8.78209 | 11193 ft | 312 kts | 83° |
| 2026-04-15 16:36 | 50.20667 | 8.81569 | 10708 ft | 311 kts | 83° |
| 2026-04-15 16:36 | 50.20927 | 8.84910 | 10229 ft | 309 kts | 83° |
| 2026-04-15 16:37 | 50.21184 | 8.88169 | 9513 ft | 297 kts | 83° |
| 2026-04-15 16:37 | 50.21429 | 8.91339 | 8706 ft | 291 kts | 83° |
| 2026-04-15 16:37 | 50.21662 | 8.94451 | 7855 ft | 286 kts | 83° |
| 2026-04-15 16:37 | 50.21728 | 8.97511 | 6980 ft | 280 kts | 97° |
| 2026-04-15 16:38 | 50.21070 | 9.00313 | 6106 ft | 274 kts | 122° |
| 2026-04-15 16:38 | 50.19714 | 9.02309 | 5435 ft | 265 kts | 149° |
| 2026-04-15 16:38 | 50.18033 | 9.03040 | 5074 ft | 247 kts | 179° |
| 2026-04-15 16:38 | 50.16454 | 9.02245 | 4997 ft | 242 kts | 217° |
| 2026-04-15 16:39 | 50.15494 | 9.00155 | 4988 ft | 239 kts | 252° |
| 2026-04-15 16:39 | 50.15070 | 8.97655 | 4994 ft | 239 kts | 257° |
| 2026-04-15 16:39 | 50.14601 | 8.95170 | 4981 ft | 240 kts | 252° |
| 2026-04-15 16:39 | 50.14023 | 8.92730 | 4987 ft | 240 kts | 250° |
| 2026-04-15 16:40 | 50.13428 | 8.90304 | 4981 ft | 240 kts | 250° |
| 2026-04-15 16:40 | 50.12845 | 8.87864 | 4984 ft | 240 kts | 251° |
| 2026-04-15 16:40 | 50.12269 | 8.85437 | 4813 ft | 237 kts | 251° |
| 2026-04-15 16:40 | 50.11693 | 8.83036 | 4477 ft | 234 kts | 250° |
| 2026-04-15 16:41 | 50.11136 | 8.80713 | 4117 ft | 223 kts | 250° |
| 2026-04-15 16:41 | 50.10605 | 8.78498 | 3787 ft | 214 kts | 251° |
| 2026-04-15 16:41 | 50.10109 | 8.76422 | 3510 ft | 200 kts | 250° |
| 2026-04-15 16:41 | 50.09636 | 8.74447 | 3219 ft | 188 kts | 251° |
| 2026-04-15 16:42 | 50.09193 | 8.72595 | 2960 ft | 176 kts | 250° |
| 2026-04-15 16:42 | 50.08781 | 8.70877 | 2730 ft | 163 kts | 250° |
| 2026-04-15 16:42 | 50.08398 | 8.69292 | 2523 ft | 152 kts | 249° |
| 2026-04-15 16:42 | 50.08038 | 8.67795 | 2323 ft | 144 kts | 251° |
| 2026-04-15 16:43 | 50.07702 | 8.66379 | 2116 ft | 135 kts | 250° |
| 2026-04-15 16:43 | 50.07381 | 8.65039 | 1951 ft | 130 kts | 250° |
| 2026-04-15 16:43 | 50.07069 | 8.63732 | 1774 ft | 129 kts | 250° |
| 2026-04-15 16:43 | 50.06759 | 8.62435 | 1616 ft | 127 kts | 250° |
| 2026-04-15 16:44 | 50.06450 | 8.61148 | 1446 ft | 127 kts | 249° |
| 2026-04-15 16:44 | 50.06138 | 8.59848 | 1239 ft | 128 kts | 250° |
| 2026-04-15 16:44 | 50.05818 | 8.58577 | 1092 ft | 125 kts | 249° |
| 2026-04-15 16:44 | 50.05529 | 8.57332 | 936 ft | 122 kts | 250° |
| 2026-04-15 16:45 | 50.05227 | 8.56093 | 776 ft | 121 kts | 248° |
| 2026-04-15 16:45 | 50.04940 | 8.54856 | 592 ft | 122 kts | 250° |
| 2026-04-15 16:45 | 50.04639 | 8.53631 | 420 ft | 121 kts | 251° |
| 2026-04-15 16:45 | 50.04358 | 8.52442 | 361 ft | 105 kts | 249° |
| 2026-04-15 16:46 | 50.04195 | 8.51767 | 367 ft | 33 kts | 246° |
| 2026-04-15 16:46 | 50.04069 | 8.51493 | 366 ft | 32 kts | 219° |
| 2026-04-15 16:46 | 50.03989 | 8.51389 | 363 ft | 0 kts | 219° |
| 2026-04-15 16:46 | 50.03988 | 8.51387 | 363 ft | 2 kts | 219° |
| 2026-04-15 16:47 | 50.03939 | 8.51368 | 365 ft | 3 kts | 159° |
| 2026-04-15 16:47 | 50.03915 | 8.51405 | 361 ft | 6 kts | 126° |
| 2026-04-15 16:47 | 50.03914 | 8.51482 | 359 ft | 9 kts | 77° |
| 2026-04-15 16:47 | 50.03940 | 8.51598 | 362 ft | 14 kts | 69° |
| 2026-04-15 16:48 | 50.03980 | 8.51762 | 360 ft | 19 kts | 70° |
| 2026-04-15 16:48 | 50.04031 | 8.51977 | 363 ft | 24 kts | 70° |
| 2026-04-15 16:48 | 50.04095 | 8.52238 | 361 ft | 28 kts | 69° |
| 2026-04-15 16:48 | 50.04154 | 8.52480 | 361 ft | 21 kts | 70° |
| 2026-04-15 16:49 | 50.04209 | 8.52714 | 361 ft | 25 kts | 70° |
| 2026-04-15 16:49 | 50.04276 | 8.52990 | 362 ft | 29 kts | 69° |
| 2026-04-15 16:49 | 50.04322 | 8.53180 | 362 ft | 18 kts | 70° |
| 2026-04-15 16:49 | 50.04378 | 8.53410 | 365 ft | 22 kts | 69° |
| 2026-04-15 16:50 | 50.04407 | 8.53661 | 359 ft | 26 kts | 84° |
| 2026-04-15 16:50 | 50.04425 | 8.53946 | 356 ft | 23 kts | 84° |
| 2026-04-15 16:50 | 50.04442 | 8.54214 | 363 ft | 27 kts | 84° |
| 2026-04-15 16:50 | 50.04443 | 8.54525 | 362 ft | 24 kts | 103° |
| 2026-04-15 16:51 | 50.04360 | 8.54719 | 363 ft | 18 kts | 140° |
| 2026-04-15 16:51 | 50.04250 | 8.54808 | 361 ft | 20 kts | 161° |
| 2026-04-15 16:51 | 50.04107 | 8.54889 | 360 ft | 24 kts | 159° |
| 2026-04-15 16:51 | 50.04085 | 8.54901 | 359 ft | 0 kts | 159° |
| 2026-04-15 16:52 | 50.04054 | 8.54920 | 363 ft | 9 kts | 159° |
| 2026-04-15 16:52 | 50.04019 | 8.54981 | 360 ft | 14 kts | 101° |
| 2026-04-15 16:52 | 50.04053 | 8.55163 | 364 ft | 20 kts | 69° |
| 2026-04-15 16:52 | 50.04109 | 8.55394 | 362 ft | 25 kts | 69° |
| 2026-04-15 16:53 | 50.04174 | 8.55665 | 364 ft | 29 kts | 69° |
| 2026-04-15 16:53 | 50.04246 | 8.55965 | 362 ft | 27 kts | 69° |
| 2026-04-15 16:53 | 50.04301 | 8.56200 | 363 ft | 24 kts | 70° |
| 2026-04-15 16:53 | 50.04366 | 8.56469 | 360 ft | 29 kts | 69° |
| 2026-04-15 16:54 | 50.04426 | 8.56723 | 359 ft | 23 kts | 70° |
| 2026-04-15 16:54 | 50.04488 | 8.56974 | 362 ft | 27 kts | 70° |
| 2026-04-15 16:54 | 50.04544 | 8.57214 | 364 ft | 26 kts | 70° |
| 2026-04-15 16:54 | 50.04604 | 8.57370 | 365 ft | 14 kts | 26° |
| 2026-04-15 16:55 | 50.04690 | 8.57398 | 360 ft | 6 kts | 355° |
| 2026-04-15 16:55 | 50.04708 | 8.57373 | 364 ft | 2 kts | 288° |
| 2026-04-15 16:55 | 50.04716 | 8.57304 | 364 ft | 1 kts | 277° |